WIDD METAR and TAF | Updated Today

WIDD METAR

Hang Nadim International Airport

Observation time: 25 min. ago

WIDD 011530Z 01007KT 9999 FEW014 26/23 Q1012 NOSIG

Need help? Read our tutorial on how to read METARs or read the parsed version below.

Hang Nadim International Airport (WIDD) METAR

  • Weather conditions on Wed, 01 Feb 2023 15:30:00 +0000 (25 min. ago):
  • Present conditions: Dry
  • Clouds: A few at 427 meters
  • Visibility: Greater than 10 km
  • Wind: 10 degrees at 7 knots
  • Temperature: 26 celsius
  • Dew point: 23 celsius
  • Pressure: 1012 millibars
  • Remarks: None


Useful to know...

WIDD TAF

Hang Nadim International Airport

TAF WIDD 011100Z 0112/0212 36007KT 9000 SCT014
Observation time: 4:55 hr. ago
Need help? Read our tutorial on how to read TAFs or read the parsed version below.

Parsed version of TAF for Hang Nadim International Airport (WIDD)

  • From 01 February at 12:00 UTC, to day 02 of the month at 12:00 UTC
  • Clouds: Scattered at 427 meters
  • Visibility: 9000 meters
  • Wind: 360 degrees at 7